Time;durP1;ratioP1;P1;durP2;ratioP2;P2;SDS_P1;SDS_P2;PMS_P1;PMS_P2;Temp;Humidity;BMP_temperature;BMP_pressure;BME280_temperature;BME280_humidity;BME280_pressure;Samples;Min_cycle;Max_cycle;Signal;HPM_P1;HPM_P2
2023/12/10 00:01:14;;;;;;;0.28;0.28;;;;;;;15.00;57.13;99571.81;5070062;28;20473;-66
2023/12/10 00:03:39;;;;;;;0.20;0.20;;;;;;;15.12;56.01;99572.25;5069502;28;20312;-66
2023/12/10 00:06:05;;;;;;;0.40;0.40;;;;;;;15.17;56.92;99574.91;5070377;28;20059;-66
2023/12/10 00:08:30;;;;;;;0.30;0.30;;;;;;;14.91;57.11;99573.53;5070312;28;20524;-66
2023/12/10 00:10:55;;;;;;;0.20;0.20;;;;;;;15.30;55.47;99573.41;5070136;28;20029;-67
2023/12/10 00:13:21;;;;;;;0.20;0.20;;;;;;;14.89;56.82;99590.06;5069966;28;20046;-66
2023/12/10 00:15:46;;;;;;;0.25;0.25;;;;;;;14.95;55.65;99586.22;5069712;28;20391;-66
2023/12/10 00:18:12;;;;;;;0.13;0.13;;;;;;;14.47;57.68;99589.00;5069899;28;20036;-66
2023/12/10 00:20:37;;;;;;;0.30;0.30;;;;;;;14.58;57.74;99595.97;5069799;28;20043;-65
2023/12/10 00:23:03;;;;;;;0.20;0.20;;;;;;;14.63;58.57;99614.84;5061492;28;20040;-67
2023/12/10 00:25:31;;;;;;;0.10;0.10;;;;;;;14.84;58.41;99592.78;5070250;28;20049;-67
2023/12/10 00:27:57;;;;;;;0.40;0.40;;;;;;;15.21;58.49;99613.84;5070384;28;20036;-67
2023/12/10 00:30:23;;;;;;;0.30;0.30;;;;;;;14.25;63.73;99623.72;5068137;28;20028;-66
2023/12/10 00:32:48;;;;;;;0.28;0.28;;;;;;;14.17;65.03;99632.41;5068927;28;20487;-66
2023/12/10 00:35:13;;;;;;;0.30;0.30;;;;;;;13.67;66.33;99617.22;5061826;28;20397;-66
2023/12/10 00:37:39;;;;;;;0.30;0.30;;;;;;;13.81;66.41;99620.94;5068427;28;20043;-66
2023/12/10 00:40:06;;;;;;;0.40;0.40;;;;;;;13.59;68.54;99618.59;5070212;28;20040;-66
2023/12/10 00:42:32;;;;;;;0.25;0.25;;;;;;;13.82;68.28;99619.84;5067976;28;20024;-65
2023/12/10 00:44:57;;;;;;;0.20;0.20;;;;;;;13.58;69.57;99616.19;5070332;28;20442;-65
2023/12/10 00:47:23;;;;;;;0.32;0.32;;;;;;;13.73;68.81;99616.13;5070092;28;20048;-66
2023/12/10 00:49:48;;;;;;;0.40;0.40;;;;;;;13.18;70.63;99633.25;5070009;28;20488;-65
2023/12/10 00:52:14;;;;;;;0.30;0.30;;;;;;;13.64;69.47;99618.56;5070385;28;20857;-66
2023/12/10 00:54:39;;;;;;;0.50;0.50;;;;;;;13.20;71.05;99639.19;5070162;28;20047;-66
2023/12/10 00:57:05;;;;;;;0.40;0.40;;;;;;;13.40;72.01;99620.28;5070698;28;20027;-66
2023/12/10 00:59:30;;;;;;;0.35;0.35;;;;;;;13.33;71.71;99629.69;5069986;28;20035;-66
2023/12/10 01:01:57;;;;;;;0.30;0.30;;;;;;;13.23;72.40;99632.44;5069060;28;20067;-67
2023/12/10 01:04:22;;;;;;;0.40;0.40;;;;;;;13.64;70.91;99620.47;5069518;28;20041;-65
2023/12/10 01:06:49;;;;;;;0.32;0.32;;;;;;;13.07;73.27;99613.56;5066294;28;20178;-65
2023/12/10 01:09:15;;;;;;;0.35;0.35;;;;;;;13.51;72.05;99635.34;5060868;28;20045;-65
2023/12/10 01:11:41;;;;;;;0.30;0.30;;;;;;;13.42;71.13;99628.09;5060146;28;20500;-64
2023/12/10 01:14:06;;;;;;;0.30;0.30;;;;;;;13.55;71.49;99624.81;5061564;28;20129;-65
2023/12/10 01:16:32;;;;;;;0.40;0.40;;;;;;;13.88;70.50;99629.56;5060976;28;20119;-66
2023/12/10 01:18:57;;;;;;;0.38;0.38;;;;;;;13.79;71.01;99631.22;5059504;28;20041;-66
2023/12/10 01:21:22;;;;;;;0.55;0.55;;;;;;;13.49;72.09;99647.50;5059089;28;20029;-67
2023/12/10 01:23:54;;;;;;;0.20;0.20;;;;;;;13.66;72.02;99635.28;5061678;28;20028;-66
2023/12/10 01:26:19;;;;;;;0.40;0.40;;;;;;;13.35;72.87;99644.53;5059245;28;20080;-65
2023/12/10 01:28:45;;;;;;;0.20;0.20;;;;;;;12.99;74.32;99651.81;5059395;28;20038;-65
2023/12/10 01:31:10;;;;;;;0.30;0.30;;;;;;;13.35;72.84;99631.06;5068102;28;20044;-65
2023/12/10 01:33:36;;;;;;;0.32;0.32;;;;;;;13.44;72.62;99645.63;5069287;28;20024;-65
2023/12/10 01:36:01;;;;;;;0.40;0.40;;;;;;;13.82;72.22;99649.56;5069890;28;20052;-65
2023/12/10 01:38:27;;;;;;;0.20;0.20;;;;;;;13.60;72.99;99643.69;5069786;28;20040;-65
2023/12/10 01:40:53;;;;;;;0.25;0.25;;;;;;;13.29;73.91;99645.63;5069683;28;20071;-65
2023/12/10 01:43:18;;;;;;;0.30;0.30;;;;;;;13.39;73.77;99634.81;5069657;28;20131;-66
2023/12/10 01:45:54;;;;;;;0.47;0.47;;;;;;;13.68;72.81;99649.34;5066311;28;20060;-66
2023/12/10 01:48:21;;;;;;;0.22;0.22;;;;;;;13.57;73.62;99628.03;5069659;28;20033;-65
2023/12/10 01:50:47;;;;;;;0.20;0.20;;;;;;;13.63;72.84;99670.94;5069394;28;20090;-65
2023/12/10 01:53:14;;;;;;;0.20;0.20;;;;;;;13.43;73.81;99635.91;5073506;28;20037;-64
2023/12/10 01:55:41;;;;;;;0.40;0.40;;;;;;;13.50;72.84;99665.31;5073252;28;20500;-64
2023/12/10 01:58:08;;;;;;;0.30;0.30;;;;;;;13.39;74.20;99647.50;5072911;28;20491;-64
2023/12/10 02:00:34;;;;;;;0.43;0.43;;;;;;;13.07;74.70;99645.91;5073328;28;20520;-65
2023/12/10 02:03:02;;;;;;;0.17;0.17;;;;;;;13.51;73.84;99651.53;5071061;28;20142;-65
2023/12/10 02:05:28;;;;;;;0.40;0.40;;;;;;;13.19;75.14;99641.06;5072498;28;20051;-66
2023/12/10 02:07:54;;;;;;;0.30;0.30;;;;;;;13.61;73.47;99642.59;5073069;28;20040;-67
2023/12/10 02:10:19;;;;;;;0.40;0.40;;;;;;;12.93;76.12;99652.09;5072716;28;20044;-65
2023/12/10 02:12:46;;;;;;;0.40;0.40;;;;;;;12.78;76.53;99655.59;5073014;28;20039;-66
2023/12/10 02:15:16;;;;;;;0.30;0.30;;;;;;;13.18;76.68;99657.53;5073340;28;20025;-65
2023/12/10 02:17:41;;;;;;;0.30;0.30;;;;;;;12.90;76.51;99666.94;5072662;28;20384;-64
2023/12/10 02:20:10;;;;;;;0.30;0.30;;;;;;;12.86;76.29;99660.44;5072391;28;20029;-65
2023/12/10 02:22:37;;;;;;;0.38;0.38;;;;;;;12.83;76.74;99665.56;5072921;28;20033;-66
2023/12/10 02:25:07;;;;;;;0.30;0.30;;;;;;;13.34;76.88;99655.63;5072656;28;20537;-64
2023/12/10 02:27:32;;;;;;;0.28;0.28;;;;;;;13.15;76.26;99666.13;5072743;28;20028;-65
2023/12/10 02:29:58;;;;;;;0.40;0.40;;;;;;;12.64;77.19;99651.78;5073445;28;20484;-65
2023/12/10 02:32:23;;;;;;;0.30;0.30;;;;;;;13.06;77.62;99665.88;5070011;28;20039;-64
2023/12/10 02:34:48;;;;;;;0.30;0.30;;;;;;;13.29;76.02;99664.50;5071934;28;20047;-64
2023/12/10 02:37:14;;;;;;;0.30;0.30;;;;;;;13.30;75.75;99671.53;5072609;28;20123;-65
2023/12/10 02:39:39;;;;;;;0.40;0.40;;;;;;;13.00;76.51;99656.16;5072450;28;20159;-66
2023/12/10 02:42:04;;;;;;;0.20;0.20;;;;;;;12.79;78.13;99659.91;5073218;28;20051;-64
2023/12/10 02:44:30;;;;;;;0.30;0.30;;;;;;;12.78;77.74;99662.84;5072285;28;20028;-65
2023/12/10 02:46:55;;;;;;;0.28;0.28;;;;;;;12.85;77.93;99664.25;5070564;28;20063;-64
2023/12/10 02:49:21;;;;;;;0.30;0.30;;;;;;;12.93;76.95;99676.38;5072084;28;20032;-66
2023/12/10 02:51:46;;;;;;;0.30;0.30;;;;;;;12.73;78.82;99663.69;5071901;28;20515;-64
2023/12/10 02:54:11;;;;;;;0.30;0.30;;;;;;;12.52;79.71;99669.31;5072405;28;20024;-66
2023/12/10 02:56:37;;;;;;;0.40;0.40;;;;;;;12.97;77.42;99669.38;5072201;28;20430;-64
2023/12/10 02:59:02;;;;;;;0.35;0.35;;;;;;;12.80;78.73;99677.69;5072157;28;20086;-65
2023/12/10 03:01:28;;;;;;;0.35;0.35;;;;;;;12.17;80.74;99670.81;5071785;28;20059;-65
2023/12/10 03:03:53;;;;;;;0.32;0.32;;;;;;;13.23;77.53;99674.50;5070674;28;20115;-65
2023/12/10 03:06:18;;;;;;;0.40;0.40;;;;;;;13.06;77.41;99681.25;5072235;28;20404;-64
2023/12/10 03:08:44;;;;;;;0.30;0.30;;;;;;;12.65;79.15;99680.38;5071889;28;20053;-64
2023/12/10 03:11:09;;;;;;;0.22;0.22;;;;;;;12.87;78.89;99672.88;5071861;28;20565;-64
2023/12/10 03:13:35;;;;;;;0.20;0.20;;;;;;;12.23;80.28;99671.63;5071876;28;20441;-63
2023/12/10 03:16:00;;;;;;;0.30;0.30;;;;;;;12.85;79.41;99676.91;5068921;28;20595;-64
2023/12/10 03:18:27;;;;;;;0.20;0.20;;;;;;;12.91;77.92;99679.31;5071751;28;20032;-63
2023/12/10 03:20:52;;;;;;;0.40;0.40;;;;;;;12.88;78.76;99687.97;5071904;28;20025;-65
2023/12/10 03:23:17;;;;;;;0.20;0.20;;;;;;;12.12;81.33;99678.06;5071537;28;20545;-64
2023/12/10 03:25:43;;;;;;;0.20;0.20;;;;;;;12.83;78.43;99676.38;5070935;28;20036;-64
2023/12/10 03:28:09;;;;;;;0.43;0.43;;;;;;;12.68;79.88;99689.78;5071433;28;20154;-64
2023/12/10 03:30:34;;;;;;;0.30;0.30;;;;;;;12.60;78.80;99710.00;5071584;28;20032;-65
2023/12/10 03:33:00;;;;;;;0.30;0.30;;;;;;;13.02;78.09;99694.44;5071851;28;20033;-65
2023/12/10 03:35:25;;;;;;;0.40;0.40;;;;;;;12.85;79.63;99680.41;5071239;28;20106;-65
2023/12/10 03:37:50;;;;;;;0.30;0.30;;;;;;;12.72;79.73;99678.22;5071342;28;20063;-66
2023/12/10 03:40:16;;;;;;;0.40;0.40;;;;;;;12.24;80.74;99689.44;5069672;28;20036;-65
2023/12/10 03:42:41;;;;;;;0.32;0.32;;;;;;;12.71;79.35;99676.63;5071314;28;20122;-66
2023/12/10 03:45:07;;;;;;;0.30;0.30;;;;;;;12.56;80.36;99690.03;5071554;28;20020;-66
2023/12/10 03:47:33;;;;;;;0.40;0.40;;;;;;;12.41;80.46;99676.53;5070777;28;20041;-65
2023/12/10 03:49:58;;;;;;;0.40;0.40;;;;;;;12.61;80.67;99702.72;5068981;28;20484;-65
2023/12/10 03:52:23;;;;;;;0.30;0.30;;;;;;;12.43;81.22;99695.13;5070899;28;20120;-65
2023/12/10 03:54:49;;;;;;;0.40;0.40;;;;;;;12.96;79.82;99682.03;5070719;28;20135;-66
2023/12/10 03:57:14;;;;;;;0.20;0.20;;;;;;;12.84;79.69;99716.53;5071242;28;20037;-65
2023/12/10 03:59:40;;;;;;;0.30;0.30;;;;;;;12.69;80.48;99705.72;5070818;28;20484;-65
2023/12/10 04:02:05;;;;;;;0.40;0.40;;;;;;;12.91;78.76;99689.31;5066417;28;20040;-64
2023/12/10 04:04:30;;;;;;;0.30;0.30;;;;;;;12.57;80.08;99680.91;5070478;28;20043;-65
2023/12/10 04:06:56;;;;;;;0.20;0.20;;;;;;;13.31;78.03;99694.72;5070594;28;20496;-66
2023/12/10 04:09:22;;;;;;;0.38;0.38;;;;;;;13.04;78.50;99688.81;5070779;28;20101;-66
2023/12/10 04:11:47;;;;;;;0.40;0.40;;;;;;;12.86;80.05;99708.16;5070592;28;20036;-67
2023/12/10 04:14:12;;;;;;;0.30;0.30;;;;;;;12.83;80.73;99677.19;5069952;28;20039;-67
2023/12/10 04:16:38;;;;;;;0.47;0.47;;;;;;;12.49;81.13;99697.59;5070298;28;20044;-67
2023/12/10 04:19:04;;;;;;;0.40;0.40;;;;;;;12.92;79.53;99699.81;5070430;28;20062;-66
2023/12/10 04:21:29;;;;;;;0.30;0.30;;;;;;;13.04;78.51;99700.41;5070243;28;20582;-67
2023/12/10 04:23:55;;;;;;;0.30;0.30;;;;;;;12.61;81.16;99697.34;5070872;28;20033;-66
2023/12/10 04:26:21;;;;;;;0.10;0.10;;;;;;;12.50;81.24;99717.25;5070050;28;20048;-68
2023/12/10 04:28:46;;;;;;;0.30;0.30;;;;;;;12.21;84.03;99698.84;5070326;28;20480;-67
2023/12/10 04:31:12;;;;;;;0.20;0.20;;;;;;;12.40;82.13;99699.19;5070192;28;20052;-67
2023/12/10 04:33:37;;;;;;;0.20;0.20;;;;;;;12.02;83.64;99707.63;5070045;28;20020;-67
2023/12/10 04:36:04;;;;;;;0.30;0.30;;;;;;;12.23;83.09;99736.28;5070061;28;20028;-67
2023/12/10 04:38:29;;;;;;;0.20;0.20;;;;;;;11.89;85.57;99735.03;5069851;28;20131;-67
2023/12/10 04:40:55;;;;;;;0.30;0.30;;;;;;;12.01;83.90;99736.44;5069502;28;20131;-67
2023/12/10 04:43:20;;;;;;;0.10;0.10;;;;;;;12.20;82.86;99726.84;5069716;28;20060;-67
2023/12/10 04:45:46;;;;;;;0.50;0.50;;;;;;;12.40;82.59;99722.63;5069259;28;20115;-68
2023/12/10 04:48:12;;;;;;;0.30;0.30;;;;;;;12.16;82.99;99776.94;5069849;28;20085;-67
2023/12/10 04:50:39;;;;;;;0.30;0.30;;;;;;;12.01;83.43;99744.50;5067093;28;20036;-67
2023/12/10 04:53:04;;;;;;;0.30;0.30;;;;;;;12.52;81.64;99744.75;5069596;28;20043;-67
2023/12/10 04:55:29;;;;;;;0.10;0.10;;;;;;;12.19;83.42;99737.88;5069323;28;20127;-66
2023/12/10 04:57:55;;;;;;;0.30;0.30;;;;;;;12.23;83.40;99755.13;5069328;28;20089;-66
2023/12/10 05:00:20;;;;;;;0.20;0.20;;;;;;;12.28;83.51;99755.94;5069976;28;20039;-66
2023/12/10 05:02:46;;;;;;;0.30;0.30;;;;;;;11.98;85.23;99744.22;5067309;28;20639;-67
2023/12/10 05:05:12;;;;;;;0.20;0.20;;;;;;;12.02;85.52;99759.59;5064447;28;20037;-66
2023/12/10 05:07:38;;;;;;;0.20;0.20;;;;;;;12.54;84.45;99775.72;5069611;28;20066;-67
2023/12/10 05:10:04;;;;;;;0.20;0.20;;;;;;;12.11;83.79;99759.91;5062221;28;20036;-67
2023/12/10 05:12:29;;;;;;;0.32;0.32;;;;;;;12.02;85.88;99770.38;5057338;28;20068;-66
2023/12/10 05:14:55;;;;;;;0.20;0.20;;;;;;;12.65;82.18;99768.50;5070164;28;20114;-66
2023/12/10 05:17:21;;;;;;;0.20;0.20;;;;;;;12.48;84.68;99778.69;5063922;28;20032;-67
2023/12/10 05:19:46;;;;;;;0.30;0.30;;;;;;;12.32;83.95;99784.00;5068932;28;20472;-67
2023/12/10 05:22:12;;;;;;;0.30;0.30;;;;;;;12.67;83.55;99790.63;5069336;28;20078;-66
2023/12/10 05:24:39;;;;;;;0.30;0.30;;;;;;;12.25;84.48;99804.16;5069382;28;20023;-66
2023/12/10 05:27:04;;;;;;;0.30;0.30;;;;;;;12.07;84.25;99788.44;5071623;28;20032;-66
2023/12/10 05:29:30;;;;;;;0.20;0.20;;;;;;;12.58;83.64;99811.88;5073766;28;20028;-68
2023/12/10 05:31:55;;;;;;;0.40;0.40;;;;;;;12.29;84.13;99805.25;5073370;28;20087;-67
2023/12/10 05:34:20;;;;;;;0.20;0.20;;;;;;;12.80;83.32;99803.59;5073393;28;20032;-67
2023/12/10 05:36:46;;;;;;;0.30;0.30;;;;;;;13.23;79.76;99797.78;5072863;28;20468;-67
2023/12/10 05:39:11;;;;;;;0.22;0.22;;;;;;;12.63;82.21;99848.81;5073800;28;20033;-68
2023/12/10 05:41:37;;;;;;;0.28;0.28;;;;;;;12.86;81.26;99806.03;5073058;28;20054;-67
2023/12/10 05:44:02;;;;;;;0.25;0.25;;;;;;;12.63;82.47;99835.34;5073016;28;20116;-67
2023/12/10 05:46:28;;;;;;;0.13;0.13;;;;;;;12.43;83.11;99835.22;5071796;28;20141;-67
2023/12/10 05:48:53;;;;;;;0.30;0.30;;;;;;;12.40;83.84;99827.69;5073254;28;20028;-67
2023/12/10 05:51:19;;;;;;;0.20;0.20;;;;;;;12.75;82.90;99839.44;5072989;28;20035;-66
2023/12/10 05:53:45;;;;;;;0.25;0.25;;;;;;;12.85;81.57;99871.03;5072123;28;20032;-67
2023/12/10 05:56:10;;;;;;;0.13;0.13;;;;;;;12.74;82.25;99842.38;5072991;28;20125;-67
2023/12/10 05:58:35;;;;;;;0.20;0.20;;;;;;;13.18;81.61;99852.56;5073066;28;20547;-68
2023/12/10 06:01:01;;;;;;;0.20;0.20;;;;;;;12.35;83.48;99858.09;5070844;28;20105;-67
2023/12/10 06:03:27;;;;;;;0.28;0.28;;;;;;;12.96;81.57;99876.19;5073163;28;20035;-67
2023/12/10 06:05:52;;;;;;;0.30;0.30;;;;;;;12.98;81.87;99857.03;5073207;28;20411;-67
2023/12/10 06:08:18;;;;;;;0.20;0.20;;;;;;;12.96;80.87;99881.59;5072913;28;20037;-67
2023/12/10 06:10:43;;;;;;;0.20;0.20;;;;;;;12.70;82.94;99876.31;5073047;28;20070;-67
2023/12/10 06:13:09;;;;;;;0.20;0.20;;;;;;;13.33;80.70;99896.81;5073216;28;20093;-67
2023/12/10 06:15:34;;;;;;;0.20;0.20;;;;;;;12.94;81.55;99897.22;5072692;28;20030;-67
2023/12/10 06:17:59;;;;;;;0.20;0.20;;;;;;;12.66;82.39;99921.88;5073269;28;20021;-67
2023/12/10 06:20:25;;;;;;;0.20;0.20;;;;;;;13.04;81.12;99918.06;5072577;28;20044;-68
2023/12/10 06:22:50;;;;;;;0.20;0.20;;;;;;;13.11;80.98;99927.50;5072750;28;20362;-67
2023/12/10 06:25:15;;;;;;;0.30;0.30;;;;;;;12.88;82.14;99932.50;5072884;28;20052;-68
2023/12/10 06:27:41;;;;;;;0.40;0.40;;;;;;;12.94;82.27;99940.38;5072587;28;20032;-67
2023/12/10 06:30:08;;;;;;;0.20;0.20;;;;;;;12.94;82.20;99932.28;5073091;28;20032;-68
2023/12/10 06:32:34;;;;;;;0.28;0.28;;;;;;;13.14;81.00;99953.16;5072608;28;20041;-67
2023/12/10 06:34:59;;;;;;;0.40;0.40;;;;;;;13.02;82.29;99950.66;5072305;28;20039;-67
2023/12/10 06:37:25;;;;;;;0.40;0.40;;;;;;;12.32;85.06;99977.16;5071912;28;20033;-68
2023/12/10 06:39:50;;;;;;;0.20;0.20;;;;;;;12.96;83.89;99981.38;5072523;28;20048;-67
2023/12/10 06:42:16;;;;;;;0.30;0.30;;;;;;;13.23;83.19;99979.38;5071503;28;20740;-67
2023/12/10 06:44:41;;;;;;;0.30;0.30;;;;;;;12.96;83.08;99994.84;5072398;28;20029;-67
2023/12/10 06:47:07;;;;;;;0.38;0.38;;;;;;;13.19;82.94;99989.06;5071732;28;20061;-68
2023/12/10 06:49:32;;;;;;;0.30;0.30;;;;;;;12.64;84.84;100014.88;5072167;28;20036;-68
2023/12/10 06:51:58;;;;;;;0.32;0.32;;;;;;;12.70;84.91;100017.31;5071151;28;20036;-67
2023/12/10 06:54:23;;;;;;;0.20;0.20;;;;;;;12.51;85.64;100010.72;5071940;28;20020;-67
2023/12/10 06:56:49;;;;;;;0.30;0.30;;;;;;;13.14;82.24;100028.69;5072488;28;20043;-68
2023/12/10 06:59:14;;;;;;;0.30;0.30;;;;;;;12.63;83.01;100030.22;5072284;28;20040;-67
2023/12/10 07:01:40;;;;;;;0.30;0.30;;;;;;;12.73;83.88;100051.03;5071678;28;20041;-68
2023/12/10 07:04:07;;;;;;;0.20;0.20;;;;;;;13.04;81.71;100044.81;5072137;28;20122;-68
2023/12/10 07:06:33;;;;;;;0.30;0.30;;;;;;;12.87;82.68;100046.84;5070266;28;20476;-67
2023/12/10 07:08:58;;;;;;;0.35;0.35;;;;;;;12.83;81.54;100059.22;5072257;28;20032;-66
2023/12/10 07:11:24;;;;;;;0.30;0.30;;;;;;;12.64;83.81;100050.69;5071913;28;20039;-67
2023/12/10 07:13:49;;;;;;;0.20;0.20;;;;;;;12.84;81.77;100055.44;5071939;28;20047;-67
2023/12/10 07:16:15;;;;;;;0.25;0.25;;;;;;;13.31;79.96;100067.09;5072351;28;20637;-67
2023/12/10 07:18:41;;;;;;;0.20;0.20;;;;;;;13.48;78.78;100058.81;5072465;28;20055;-67
2023/12/10 07:21:07;;;;;;;0.30;0.30;;;;;;;13.52;77.63;100068.03;5072484;28;20029;-67
2023/12/10 07:23:35;;;;;;;0.32;0.32;;;;;;;13.31;79.34;100060.88;5072146;28;20040;-67
2023/12/10 07:26:00;;;;;;;0.20;0.20;;;;;;;13.35;77.81;100076.28;5072030;28;20059;-68
2023/12/10 07:28:26;;;;;;;0.20;0.20;;;;;;;13.14;78.24;100071.84;5071969;28;20036;-67
2023/12/10 07:30:51;;;;;;;0.30;0.30;;;;;;;13.49;76.79;100101.75;5072111;28;20032;-68
2023/12/10 07:33:16;;;;;;;0.25;0.25;;;;;;;13.62;76.09;100079.66;5072068;28;20035;-68
2023/12/10 07:35:43;;;;;;;0.30;0.30;;;;;;;13.41;76.13;100091.44;5070729;28;20040;-68
2023/12/10 07:38:08;;;;;;;0.40;0.40;;;;;;;13.09;76.09;100086.13;5070908;28;20136;-68
2023/12/10 07:40:34;;;;;;;0.17;0.17;;;;;;;13.17;76.72;100099.13;5070860;28;20040;-67
2023/12/10 07:42:59;;;;;;;0.40;0.40;;;;;;;12.54;77.24;100092.94;5070896;28;20044;-67
2023/12/10 07:45:24;;;;;;;0.20;0.20;;;;;;;13.33;75.62;100110.81;5070380;28;20123;-67
2023/12/10 07:47:50;;;;;;;0.35;0.35;;;;;;;13.14;75.87;100109.63;5061545;28;20049;-67
2023/12/10 07:50:15;;;;;;;0.30;0.30;;;;;;;12.99;75.61;100136.47;5050025;28;20568;-69
2023/12/10 07:52:40;;;;;;;0.30;0.30;;;;;;;13.12;75.33;100112.59;5050551;28;20090;-68
2023/12/10 07:55:06;;;;;;;0.28;0.28;;;;;;;13.14;74.29;100123.94;5050398;28;20108;-69
2023/12/10 07:57:32;;;;;;;0.17;0.17;;;;;;;13.20;74.55;100151.75;5059571;28;20024;-67
2023/12/10 07:59:58;;;;;;;0.38;0.38;;;;;;;13.17;75.23;100139.59;5070617;28;20479;-68
2023/12/10 08:02:23;;;;;;;0.20;0.20;;;;;;;13.42;73.16;100159.72;5069694;28;20044;-68
2023/12/10 08:04:48;;;;;;;0.20;0.20;;;;;;;13.03;74.83;100137.56;5069658;28;20048;-66
2023/12/10 08:07:14;;;;;;;0.20;0.20;;;;;;;13.13;74.99;100151.97;5069747;28;20467;-68
2023/12/10 08:09:40;;;;;;;0.40;0.40;;;;;;;13.73;73.25;100162.34;5069809;28;20024;-68
2023/12/10 08:12:06;;;;;;;0.30;0.30;;;;;;;13.49;72.44;100180.00;5070374;28;20024;-68
2023/12/10 08:14:31;;;;;;;0.30;0.30;;;;;;;13.25;73.81;100183.38;5069873;28;20033;-67
2023/12/10 08:16:56;;;;;;;0.40;0.40;;;;;;;13.36;74.23;100183.16;5069608;28;20140;-68
2023/12/10 08:19:22;;;;;;;0.30;0.30;;;;;;;12.91;75.83;100199.75;5069481;28;20109;-67
2023/12/10 08:21:47;;;;;;;0.20;0.20;;;;;;;13.23;75.18;100209.78;5068268;28;20388;-66
2023/12/10 08:24:12;;;;;;;0.35;0.35;;;;;;;13.31;74.44;100231.69;5070196;28;20697;-67
2023/12/10 08:26:38;;;;;;;0.50;0.50;;;;;;;13.93;72.97;100221.88;5069685;28;20029;-68
2023/12/10 08:29:03;;;;;;;0.30;0.30;;;;;;;13.61;73.54;100256.22;5069401;28;20047;-68
2023/12/10 08:31:29;;;;;;;0.40;0.40;;;;;;;13.35;75.07;100237.38;5065400;28;20579;-68
2023/12/10 08:33:54;;;;;;;0.30;0.30;;;;;;;13.14;76.59;100231.84;5069458;28;20131;-68
2023/12/10 08:36:19;;;;;;;0.38;0.38;;;;;;;13.17;76.44;100250.19;5069224;28;20032;-67
2023/12/10 08:38:45;;;;;;;0.30;0.30;;;;;;;12.89;77.20;100282.00;5069400;28;20032;-68
2023/12/10 08:41:10;;;;;;;0.30;0.30;;;;;;;13.27;76.93;100281.84;5069223;28;20119;-69
2023/12/10 08:43:37;;;;;;;0.38;0.38;;;;;;;13.22;77.26;100276.41;5068901;28;20032;-67
2023/12/10 08:46:02;;;;;;;0.20;0.20;;;;;;;12.53;81.72;100275.38;5069042;28;20098;-67
2023/12/10 08:48:30;;;;;;;0.35;0.35;;;;;;;13.02;78.48;100316.66;5069662;28;20032;-67
2023/12/10 08:50:56;;;;;;;0.20;0.20;;;;;;;13.36;77.38;100258.72;5067804;28;20115;-68
2023/12/10 08:53:21;;;;;;;0.20;0.20;;;;;;;13.44;77.40;100265.53;5068599;28;20552;-67
2023/12/10 08:55:48;;;;;;;0.32;0.32;;;;;;;13.58;75.81;100275.63;5068535;28;20048;-67
2023/12/10 08:58:14;;;;;;;0.20;0.20;;;;;;;13.20;78.30;100275.84;5067808;28;20040;-67
2023/12/10 09:00:39;;;;;;;0.20;0.20;;;;;;;13.27;77.34;100287.25;5067609;28;20032;-67
2023/12/10 09:03:04;;;;;;;0.30;0.30;;;;;;;13.41;75.76;100282.22;5068063;28;20021;-67
2023/12/10 09:05:31;;;;;;;0.28;0.28;;;;;;;12.90;78.46;100289.81;5068002;28;20111;-68
2023/12/10 09:07:57;;;;;;;0.30;0.30;;;;;;;13.18;76.83;100292.31;5068228;28;20039;-68
2023/12/10 09:10:22;;;;;;;0.30;0.30;;;;;;;13.87;74.15;100289.63;5068301;28;20040;-68
2023/12/10 09:12:48;;;;;;;0.40;0.40;;;;;;;12.87;77.83;100309.22;5068129;28;20295;-67
2023/12/10 09:15:13;;;;;;;0.30;0.30;;;;;;;13.59;75.85;100279.97;5068547;28;20033;-67
2023/12/10 09:17:39;;;;;;;0.30;0.30;;;;;;;13.31;75.80;100293.75;5068044;28;20047;-68
2023/12/10 09:20:05;;;;;;;0.20;0.20;;;;;;;14.08;72.09;100311.09;5066873;28;20098;-67
2023/12/10 09:22:31;;;;;;;0.40;0.40;;;;;;;13.69;72.75;100298.94;5065855;28;20546;-67
2023/12/10 09:24:56;;;;;;;0.30;0.30;;;;;;;13.82;73.33;100320.09;5068470;28;20036;-66
2023/12/10 09:27:22;;;;;;;0.20;0.20;;;;;;;14.12;72.08;100338.41;5068930;28;20024;-68
2023/12/10 09:29:47;;;;;;;0.32;0.32;;;;;;;14.32;71.07;100335.06;5067799;28;20080;-67
2023/12/10 09:32:15;;;;;;;0.32;0.32;;;;;;;14.13;70.72;100335.44;5066926;28;20040;-67
2023/12/10 09:34:41;;;;;;;0.28;0.28;;;;;;;14.12;70.45;100349.22;5068897;28;20037;-68
2023/12/10 09:37:10;;;;;;;0.20;0.20;;;;;;;14.08;70.54;100362.44;5064501;28;20447;-67
2023/12/10 09:39:36;;;;;;;0.20;0.20;;;;;;;14.89;67.84;100366.44;5066045;28;20464;-67
2023/12/10 09:42:02;;;;;;;0.20;0.20;;;;;;;14.37;69.75;100371.03;5068903;28;20017;-67
2023/12/10 09:44:28;;;;;;;0.20;0.20;;;;;;;14.06;70.59;100372.69;5068339;28;20036;-69
2023/12/10 09:46:53;;;;;;;0.30;0.30;;;;;;;14.35;68.86;100389.41;5066587;28;20488;-68
2023/12/10 09:49:21;;;;;;;0.50;0.50;;;;;;;14.12;68.89;100392.44;5068336;28;20032;-68
2023/12/10 09:51:46;;;;;;;0.20;0.20;;;;;;;13.81;70.18;100372.50;5066471;28;20036;-68
2023/12/10 09:54:11;;;;;;;0.22;0.22;;;;;;;14.45;68.57;100385.94;5068136;28;20526;-69
2023/12/10 09:56:38;;;;;;;0.20;0.20;;;;;;;14.73;66.08;100407.19;5067785;28;20031;-68
2023/12/10 09:59:04;;;;;;;0.20;0.20;;;;;;;15.03;65.43;100409.22;5068298;28;20040;-69
2023/12/10 10:01:29;;;;;;;0.28;0.28;;;;;;;14.84;65.58;100400.75;5067194;28;20055;-68
2023/12/10 10:03:55;;;;;;;0.30;0.30;;;;;;;14.55;66.59;100408.44;5067905;28;20102;-68
2023/12/10 10:06:21;;;;;;;0.40;0.40;;;;;;;15.31;63.87;100411.50;5068103;28;20366;-68
2023/12/10 10:08:46;;;;;;;0.28;0.28;;;;;;;14.92;64.46;100408.38;5067610;28;20098;-69
2023/12/10 10:11:11;;;;;;;0.28;0.28;;;;;;;14.22;65.52;100419.56;5068106;28;20139;-68
2023/12/10 10:13:37;;;;;;;0.30;0.30;;;;;;;15.10;64.08;100412.50;5067026;28;20048;-69
2023/12/10 10:16:12;;;;;;;0.22;0.22;;;;;;;14.36;66.81;100412.66;5072341;28;20040;-69
2023/12/10 10:18:41;;;;;;;0.30;0.30;;;;;;;14.37;67.01;100406.16;5072075;28;20448;-68
2023/12/10 10:21:07;;;;;;;0.40;0.40;;;;;;;14.29;67.55;100411.28;5071962;28;20100;-68
2023/12/10 10:23:32;;;;;;;0.30;0.30;;;;;;;14.18;67.51;100404.09;5071926;28;20537;-68
2023/12/10 10:25:58;;;;;;;0.30;0.30;;;;;;;14.80;66.22;100422.09;5071318;28;20047;-68
2023/12/10 10:28:24;;;;;;;0.30;0.30;;;;;;;14.33;65.97;100402.34;5071867;28;20516;-69
2023/12/10 10:30:50;;;;;;;0.20;0.20;;;;;;;14.94;64.95;100407.03;5071706;28;20131;-69
2023/12/10 10:33:16;;;;;;;0.30;0.30;;;;;;;14.84;63.70;100411.56;5072045;28;20032;-69
2023/12/10 10:35:42;;;;;;;0.28;0.28;;;;;;;14.64;64.85;100414.19;5070323;28;20103;-69
2023/12/10 10:38:07;;;;;;;0.30;0.30;;;;;;;15.64;61.03;100413.78;5070676;28;20133;-67
2023/12/10 10:40:32;;;;;;;0.13;0.13;;;;;;;15.15;61.95;100423.34;5066063;28;20460;-69
2023/12/10 10:42:58;;;;;;;0.20;0.20;;;;;;;15.34;61.55;100427.19;5066775;28;20109;-69
2023/12/10 10:45:23;;;;;;;0.30;0.30;;;;;;;15.52;61.48;100432.97;5071022;28;20036;-67
2023/12/10 10:47:49;;;;;;;0.13;0.13;;;;;;;15.41;61.60;100436.69;5068591;28;20476;-69
2023/12/10 10:50:15;;;;;;;0.10;0.10;;;;;;;15.43;61.19;100437.28;5070983;28;20072;-68
2023/12/10 10:52:42;;;;;;;0.20;0.20;;;;;;;15.91;60.27;100444.16;5070842;28;20123;-69
2023/12/10 10:55:08;;;;;;;0.30;0.30;;;;;;;15.07;61.98;100431.97;5071130;28;20032;-69
2023/12/10 10:57:35;;;;;;;0.30;0.30;;;;;;;15.50;60.89;100437.84;5068097;28;20029;-69
2023/12/10 11:00:21;;;;;;;0.20;0.20;;;;;;;15.30;60.90;100443.16;5071286;28;20035;-68
2023/12/10 11:02:49;;;;;;;0.20;0.20;;;;;;;15.90;59.99;100439.00;5069098;28;20114;-69
2023/12/10 11:05:29;;;;;;;0.28;0.28;;;;;;;15.58;59.77;100444.63;5069288;28;20049;-68
2023/12/10 11:07:55;;;;;;;0.30;0.30;;;;;;;14.74;62.00;100463.72;5067980;28;20466;-69
2023/12/10 11:10:20;;;;;;;0.30;0.30;;;;;;;14.96;61.48;100456.28;5070623;28;20036;-69
2023/12/10 11:12:46;;;;;;;0.30;0.30;;;;;;;15.23;60.69;100455.31;5070795;28;20047;-68
2023/12/10 11:15:14;;;;;;;0.22;0.22;;;;;;;15.26;59.97;100458.31;5071045;28;20038;-69
2023/12/10 11:17:58;;;;;;;0.40;0.40;;;;;;;15.22;60.45;100457.22;5070804;28;20052;-70
2023/12/10 11:20:38;;;;;;;0.20;0.20;;;;;;;15.70;59.64;100445.22;5069485;28;20136;-69
2023/12/10 11:23:05;;;;;;;0.30;0.30;;;;;;;15.28;59.49;100452.63;5069183;28;20048;-68